Time;durP1;ratioP1;P1;durP2;ratioP2;P2;SDS_P1;SDS_P2;PMS_P1;PMS_P2;Temp;Humidity;BMP_temperature;BMP_pressure;BME280_temperature;BME280_humidity;BME280_pressure;Samples;Min_cycle;Max_cycle;Signal;HPM_P1;HPM_P2
2022/01/14 05:01:47;;;;;;;23.20;13.98;;;;;;;4.22;67.72;101639.91;5607123;31;82391;-56
2022/01/14 05:04:53;;;;;;;26.02;13.18;;;;;;;4.22;67.72;101639.91;5584197;32;34068;-56
2022/01/14 05:07:55;;;;;;;27.75;13.55;;;;;;;3.74;68.61;101634.03;5586929;31;34239;-57
2022/01/14 05:14:01;;;;;;;28.12;13.80;;;;;;;3.87;69.41;101623.41;5584518;31;33739;-56
2022/01/14 05:17:05;;;;;;;22.92;13.40;;;;;;;3.71;74.83;101626.50;5583394;31;34407;-56
2022/01/14 05:20:08;;;;;;;21.73;13.23;;;;;;;3.92;79.87;101625.47;5584923;31;33615;-57
2022/01/14 05:23:11;;;;;;;26.45;14.45;;;;;;;3.64;68.50;101618.56;5584703;32;33595;-56
2022/01/14 05:26:13;;;;;;;22.30;13.43;;;;;;;3.72;68.65;101620.97;5584503;31;34295;-56
2022/01/14 05:29:15;;;;;;;22.80;13.05;;;;;;;3.90;80.71;101632.81;5589955;31;33571;-56
2022/01/14 05:32:18;;;;;;;18.17;12.18;;;;;;;3.95;69.02;101636.50;5584055;31;34164;-56
2022/01/14 05:35:26;;;;;;;23.10;12.88;;;;;;;4.06;78.00;101636.87;5584201;31;34299;-56
2022/01/14 05:38:30;;;;;;;19.15;12.27;;;;;;;4.17;68.56;101628.28;5584153;32;34178;-56
2022/01/14 05:41:33;;;;;;;19.52;12.02;;;;;;;4.44;80.44;101631.72;5587559;31;33664;-56
2022/01/14 05:44:35;;;;;;;18.83;11.27;;;;;;;4.26;68.33;101626.25;5599123;31;33754;-56
2022/01/14 05:47:39;;;;;;;18.98;11.48;;;;;;;4.19;78.72;101629.72;5596121;31;33679;-56
2022/01/14 05:50:41;;;;;;;20.55;11.88;;;;;;;4.50;69.40;101628.19;5584070;32;34348;-56
2022/01/14 05:53:44;;;;;;;23.12;12.00;;;;;;;4.27;68.75;101625.19;5584075;31;33626;-56
2022/01/14 05:56:47;;;;;;;17.30;11.73;;;;;;;4.41;69.46;101624.16;5584442;31;33600;-56
2022/01/14 05:59:49;;;;;;;18.42;10.57;;;;;;;4.62;68.49;101634.50;5591370;31;34278;-56
2022/01/14 06:02:52;;;;;;;16.10;10.20;;;;;;;4.68;76.08;101627.53;5580947;31;34167;-56
2022/01/14 06:05:55;;;;;;;21.40;11.12;;;;;;;4.46;74.17;101632.31;5571115;32;33588;-56
2022/01/14 06:08:58;;;;;;;18.58;11.25;;;;;;;4.53;69.87;101629.63;5582027;32;33880;-57
2022/01/14 06:12:00;;;;;;;19.55;10.77;;;;;;;4.32;68.26;101638.69;5562867;32;33546;-56
2022/01/14 06:15:04;;;;;;;19.40;11.48;;;;;;;4.27;68.08;101628.66;5550267;32;34201;-57
2022/01/14 06:18:06;;;;;;;18.80;10.95;;;;;;;4.10;69.70;101630.13;5550856;32;34318;-56
2022/01/14 06:21:08;;;;;;;17.60;11.40;;;;;;;4.17;71.41;101617.66;5553054;32;33624;-57
2022/01/14 06:24:11;;;;;;;17.33;10.75;;;;;;;4.65;77.85;101622.66;5559054;32;33657;-56
2022/01/14 06:27:13;;;;;;;17.70;10.63;;;;;;;4.71;83.69;101613.84;5550362;32;33652;-56
2022/01/14 06:30:16;;;;;;;17.98;11.00;;;;;;;4.62;68.05;101607.13;5550747;32;33552;-56
2022/01/14 06:33:18;;;;;;;21.20;10.57;;;;;;;4.91;69.33;101613.75;5550010;32;34414;-57
2022/01/14 06:36:21;;;;;;;18.83;10.80;;;;;;;5.06;71.50;101595.66;5550290;32;34395;-57
2022/01/14 06:39:23;;;;;;;16.40;10.77;;;;;;;4.98;69.05;101609.22;5554943;32;33822;-57
2022/01/14 06:42:25;;;;;;;16.87;10.55;;;;;;;4.83;79.69;101596.19;5560930;32;33346;-56
2022/01/14 06:45:27;;;;;;;17.83;10.73;;;;;;;5.06;67.93;101592.19;5560444;32;33985;-56
2022/01/14 06:48:30;;;;;;;20.65;11.02;;;;;;;5.33;69.41;101595.50;5559054;32;33835;-57
2022/01/14 06:51:32;;;;;;;17.83;10.80;;;;;;;4.92;68.90;101594.94;5557440;32;33200;-56
2022/01/14 06:57:44;;;;;;;17.77;11.45;;;;;;;5.08;67.43;101588.31;5555725;32;34295;-56
2022/01/14 07:00:46;;;;;;;16.98;11.50;;;;;;;4.95;75.17;101585.72;5557340;32;33632;-56
2022/01/14 07:03:49;;;;;;;19.37;11.48;;;;;;;5.38;72.33;101590.34;5566675;32;33722;-57
2022/01/14 07:06:51;;;;;;;24.20;12.07;;;;;;;5.23;67.58;101596.00;5549730;32;33289;-57
2022/01/14 07:09:57;;;;;;;24.10;12.23;;;;;;;5.53;76.21;101587.38;5549382;32;34279;-56
2022/01/14 07:13:00;;;;;;;17.40;10.80;;;;;;;5.70;75.06;101574.38;5549480;32;33714;-57
2022/01/14 07:16:04;;;;;;;16.52;10.45;;;;;;;5.76;78.26;101579.63;5549418;32;33690;-57
2022/01/14 07:19:07;;;;;;;16.70;9.95;;;;;;;5.76;68.36;101579.63;5549338;32;33625;-56
2022/01/14 07:22:09;;;;;;;14.10;8.85;;;;;;;6.08;67.83;101571.56;5547549;32;34296;-57
2022/01/14 07:25:12;;;;;;;14.82;8.30;;;;;;;6.08;73.27;101568.91;5548047;32;33331;-57
2022/01/14 07:28:14;;;;;;;15.43;7.70;;;;;;;6.33;66.27;101571.50;5548983;32;34330;-57
2022/01/14 07:31:16;;;;;;;14.00;8.13;;;;;;;6.37;73.33;101570.00;5549191;32;34335;-57
2022/01/14 07:34:18;;;;;;;14.68;8.57;;;;;;;6.63;66.82;101574.22;5549057;32;34223;-57
2022/01/14 07:37:21;;;;;;;18.17;9.00;;;;;;;6.43;65.48;101566.47;5548524;32;34181;-57
2022/01/14 07:40:23;;;;;;;14.38;8.18;;;;;;;6.67;66.29;101559.41;5549057;32;33649;-57
2022/01/14 07:43:27;;;;;;;14.05;8.25;;;;;;;6.51;64.67;101565.34;5548704;32;34492;-56
2022/01/14 07:46:29;;;;;;;13.90;7.93;;;;;;;6.92;64.73;101569.09;5548788;32;33468;-57
2022/01/14 07:49:31;;;;;;;13.20;7.93;;;;;;;7.03;68.53;101565.69;5548816;32;33643;-56
2022/01/14 07:52:34;;;;;;;13.25;8.25;;;;;;;7.03;62.61;101574.47;5548005;32;33747;-57
2022/01/14 07:55:37;;;;;;;17.70;8.63;;;;;;;7.12;72.35;101571.47;5548423;32;33612;-57
2022/01/14 07:58:41;;;;;;;13.70;8.90;;;;;;;7.12;67.27;101576.81;5548173;32;33751;-56
2022/01/14 08:01:45;;;;;;;14.15;8.75;;;;;;;7.06;62.45;101573.22;5548394;32;34311;-57
2022/01/14 08:04:48;;;;;;;14.77;8.00;;;;;;;6.89;64.35;101566.88;5548312;32;33685;-57
2022/01/14 08:07:53;;;;;;;12.75;7.65;;;;;;;7.20;63.92;101565.84;5549021;32;33628;-56
2022/01/14 08:10:56;;;;;;;13.25;7.15;;;;;;;7.48;71.90;101558.00;5548789;32;34015;-57
2022/01/14 08:13:58;;;;;;;10.80;6.25;;;;;;;7.48;61.75;101563.34;5549074;32;33715;-56
2022/01/14 08:17:00;;;;;;;10.48;6.25;;;;;;;7.48;61.83;101562.50;5548954;32;34134;-56
2022/01/14 08:20:04;;;;;;;10.32;6.35;;;;;;;7.36;61.03;101564.38;5548518;32;33967;-56
2022/01/14 08:23:07;;;;;;;10.85;5.95;;;;;;;7.31;60.71;101562.37;5548428;32;33615;-56
2022/01/14 08:26:10;;;;;;;10.68;6.28;;;;;;;7.31;61.09;101562.37;5548554;32;33710;-57
2022/01/14 08:29:12;;;;;;;10.80;6.72;;;;;;;7.47;60.50;101553.69;5558978;32;33584;-57
2022/01/14 08:32:14;;;;;;;12.25;6.45;;;;;;;7.57;60.02;101539.78;5557246;32;33580;-56
2022/01/14 08:35:17;;;;;;;14.18;6.57;;;;;;;7.44;60.27;101542.66;5557470;32;34256;-56
2022/01/14 08:38:20;;;;;;;11.27;6.60;;;;;;;7.31;59.51;101546.38;5548431;32;33560;-56
2022/01/14 08:41:28;;;;;;;11.60;7.12;;;;;;;7.15;60.14;101552.34;5564844;32;33573;-57
2022/01/14 08:44:31;;;;;;;12.40;7.30;;;;;;;7.64;60.84;101537.81;5562405;32;34054;-57
2022/01/14 08:47:33;;;;;;;13.00;7.20;;;;;;;7.45;59.26;101525.63;5561932;32;33174;-57
2022/01/14 08:50:37;;;;;;;12.07;7.60;;;;;;;7.35;59.04;101528.03;5548289;32;33584;-57
2022/01/14 08:53:40;;;;;;;13.27;6.70;;;;;;;7.34;60.01;101516.56;5555453;32;34336;-56
2022/01/14 08:56:42;;;;;;;12.65;6.75;;;;;;;7.83;74.10;101514.47;5558344;32;34161;-57
2022/01/14 08:59:45;;;;;;;9.32;6.57;;;;;;;7.78;58.97;101514.34;5557490;32;33700;-57
2022/01/14 09:02:47;;;;;;;11.65;7.05;;;;;;;7.79;59.05;101513.34;5548105;32;33770;-57
2022/01/14 09:05:49;;;;;;;13.60;6.80;;;;;;;7.72;58.37;101493.97;5563096;32;33931;-57
2022/01/14 09:08:51;;;;;;;12.37;6.80;;;;;;;7.82;59.60;101506.72;5555412;32;33845;-57
2022/01/14 09:11:55;;;;;;;9.85;6.72;;;;;;;8.38;59.96;101515.91;5555838;32;33585;-57
2022/01/14 09:15:00;;;;;;;14.13;6.28;;;;;;;8.57;64.17;101508.50;5566666;32;33800;-56
2022/01/14 09:18:03;;;;;;;12.02;7.60;;;;;;;8.77;59.62;101502.72;5548012;32;33674;-56
2022/01/14 09:21:05;;;;;;;10.43;6.40;;;;;;;8.67;56.59;101503.34;5547331;32;34220;-57
2022/01/14 09:24:08;;;;;;;11.52;5.87;;;;;;;8.64;60.93;101487.78;5548861;32;33659;-57
2022/01/14 09:27:11;;;;;;;10.00;5.55;;;;;;;8.39;55.07;101478.25;5559998;31;34195;-57
2022/01/14 09:30:14;;;;;;;10.05;5.85;;;;;;;8.30;56.42;101486.84;5555790;31;33147;-57
2022/01/14 09:33:17;;;;;;;11.40;5.97;;;;;;;8.26;55.76;101485.72;5557512;32;33699;-57
2022/01/14 09:36:20;;;;;;;10.27;5.90;;;;;;;8.14;56.82;101469.72;5554813;32;34298;-57
2022/01/14 09:39:22;;;;;;;9.45;5.70;;;;;;;8.20;55.28;101469.56;5545906;32;33664;-57
2022/01/14 09:42:25;;;;;;;10.35;6.22;;;;;;;8.19;55.52;101469.84;5545276;32;33572;-56
2022/01/14 09:45:28;;;;;;;14.60;6.45;;;;;;;8.13;54.28;101482.25;5550752;32;33631;-57
2022/01/14 09:48:31;;;;;;;8.80;5.75;;;;;;;8.12;54.77;101483.31;5551678;32;33668;-57
2022/01/14 09:51:34;;;;;;;9.00;5.00;;;;;;;8.30;56.86;101476.16;5556523;32;33653;-56
2022/01/14 09:54:37;;;;;;;10.73;5.60;;;;;;;8.38;53.84;101473.97;5558166;32;33043;-57
2022/01/14 09:57:39;;;;;;;8.05;5.05;;;;;;;8.31;53.65;101472.44;5554259;32;33988;-57
2022/01/14 10:00:41;;;;;;;8.68;5.50;;;;;;;8.35;54.20;101462.94;5558940;32;33620;-57
2022/01/14 10:04:02;;;;;;;10.48;5.75;;;;;;;8.66;54.07;101453.63;5552449;32;33685;-57
2022/01/14 10:07:05;;;;;;;12.77;6.12;;;;;;;8.72;52.23;101446.50;5552502;32;33601;-57
2022/01/14 10:10:24;;;;;;;9.20;5.53;;;;;;;8.56;52.67;101454.25;5546657;32;33831;-57
2022/01/14 10:13:32;;;;;;;13.27;5.35;;;;;;;8.45;52.70;101457.81;5548121;32;33836;-59
2022/01/14 10:16:36;;;;;;;10.23;5.70;;;;;;;8.55;52.66;101430.44;5548619;32;32584;-59
2022/01/14 10:19:44;;;;;;;11.32;5.65;;;;;;;8.42;52.53;101431.56;5548929;32;33773;-59
2022/01/14 10:22:48;;;;;;;10.88;5.93;;;;;;;8.51;52.79;101431.97;5561869;32;34193;-59
2022/01/14 10:25:56;;;;;;;9.48;5.43;;;;;;;8.68;51.92;101427.47;5552088;32;33225;-59
2022/01/14 10:29:01;;;;;;;9.93;5.43;;;;;;;8.69;51.61;101424.53;5564010;32;34395;-59
2022/01/14 10:32:06;;;;;;;10.70;5.75;;;;;;;8.58;51.41;101424.63;5556883;32;34043;-59
2022/01/14 10:35:15;;;;;;;23.70;6.35;;;;;;;8.65;51.47;101414.59;5557698;32;33440;-59
2022/01/14 10:38:20;;;;;;;10.27;5.85;;;;;;;8.69;51.32;101413.84;5560505;32;34450;-57
2022/01/14 10:41:29;;;;;;;11.57;5.80;;;;;;;8.65;51.00;101419.94;5556694;32;34366;-57
2022/01/14 10:44:34;;;;;;;9.60;5.68;;;;;;;8.61;51.34;101397.38;5556994;32;33661;-56
2022/01/14 10:47:37;;;;;;;15.37;6.87;;;;;;;8.53;51.41;101397.78;5556564;32;34417;-56
2022/01/14 10:50:56;;;;;;;9.60;5.70;;;;;;;8.58;51.94;101376.50;5557437;32;34241;-56
2022/01/14 10:54:00;;;;;;;10.73;5.80;;;;;;;8.39;51.74;101387.41;5567837;32;33697;-56
2022/01/14 10:57:22;;;;;;;9.63;5.37;;;;;;;8.41;52.79;101355.94;5559707;32;34284;-56
2022/01/14 11:00:25;;;;;;;11.20;6.50;;;;;;;8.27;52.91;101375.94;5556536;32;33713;-57
2022/01/14 11:04:01;;;;;;;11.02;6.07;;;;;;;8.26;52.72;101374.31;5573525;31;33800;-56
2022/01/14 11:07:22;;;;;;;10.98;5.93;;;;;;;8.14;52.87;101365.56;5551461;32;33432;-56
2022/01/14 11:10:27;;;;;;;14.68;6.57;;;;;;;8.23;53.84;101366.78;5558790;32;33792;-56
2022/01/14 11:13:29;;;;;;;9.82;6.12;;;;;;;8.21;52.64;101348.34;5553697;32;33607;-56
2022/01/14 11:16:33;;;;;;;12.30;6.50;;;;;;;8.33;53.68;101356.28;5558539;32;33682;-57
2022/01/14 11:19:36;;;;;;;13.43;6.65;;;;;;;8.18;53.21;101348.03;5549605;32;33720;-56
2022/01/14 11:26:11;;;;;;;14.07;8.57;;;;;;;8.31;54.37;101333.53;5559539;32;34354;-57
2022/01/14 11:29:16;;;;;;;12.15;7.20;;;;;;;8.30;53.56;101330.03;5555397;32;33656;-56
2022/01/14 11:32:20;;;;;;;15.02;7.55;;;;;;;8.55;53.48;101329.69;5558700;32;34580;-57
2022/01/14 11:35:25;;;;;;;15.73;6.97;;;;;;;8.62;53.26;101326.84;5552272;32;33305;-57
2022/01/14 11:38:43;;;;;;;10.57;6.68;;;;;;;8.68;56.38;101312.53;5567682;32;34069;-57
2022/01/14 11:41:51;;;;;;;11.63;7.30;;;;;;;9.04;56.54;101319.19;5551790;32;33345;-57
2022/01/14 11:44:56;;;;;;;13.00;7.30;;;;;;;9.01;53.83;101306.31;5554650;32;33760;-57
2022/01/14 11:48:00;;;;;;;10.82;6.43;;;;;;;8.97;51.53;101291.78;5553405;32;33636;-57
2022/01/14 11:51:09;;;;;;;10.65;6.68;;;;;;;8.97;53.29;101289.12;5549139;32;33194;-57
2022/01/14 11:54:11;;;;;;;11.57;6.90;;;;;;;8.84;53.09;101281.44;5549329;31;33728;-56
2022/01/14 11:57:45;;;;;;;11.00;6.53;;;;;;;8.99;57.00;101275.50;5550036;32;33183;-57
2022/01/14 12:00:47;;;;;;;11.00;6.55;;;;;;;9.10;56.62;101277.25;5562901;31;33573;-56
2022/01/14 12:03:51;;;;;;;11.45;5.97;;;;;;;9.13;53.84;101268.75;5558456;31;33752;-56
2022/01/14 12:06:54;;;;;;;11.45;6.30;;;;;;;9.33;57.27;101271.66;5557371;31;33658;-56
2022/01/14 12:10:09;;;;;;;11.05;6.22;;;;;;;9.40;56.71;101258.09;5546962;32;34341;-56
2022/01/14 12:13:29;;;;;;;13.65;7.05;;;;;;;9.40;51.04;101252.72;5548091;32;33744;-57
2022/01/14 12:19:39;;;;;;;9.32;5.22;;;;;;;9.30;59.87;101253.41;5548326;32;33752;-57
2022/01/14 12:23:02;;;;;;;12.98;6.35;;;;;;;9.39;53.41;101254.59;5547804;32;34403;-57
2022/01/14 12:26:16;;;;;;;10.52;6.43;;;;;;;9.40;51.90;101253.56;5548074;32;32648;-57
2022/01/14 12:29:29;;;;;;;11.75;6.30;;;;;;;9.23;53.04;101250.13;5547943;32;33828;-57
2022/01/14 12:32:41;;;;;;;11.05;6.60;;;;;;;9.19;53.44;101254.37;5548298;32;33781;-56
2022/01/14 12:35:45;;;;;;;11.52;6.70;;;;;;;9.03;52.49;101256.03;5547654;32;34368;-57
2022/01/14 12:38:48;;;;;;;10.77;5.62;;;;;;;9.13;51.78;101266.88;5548493;32;33902;-56
2022/01/14 12:41:53;;;;;;;11.63;5.25;;;;;;;9.44;53.74;101264.56;5548284;32;33765;-57
2022/01/14 12:44:58;;;;;;;9.88;5.57;;;;;;;9.51;59.21;101272.41;5547532;32;33727;-56
2022/01/14 12:48:40;;;;;;;10.52;6.00;;;;;;;9.43;56.05;101278.19;5564816;31;33686;-56
2022/01/14 12:51:42;;;;;;;9.65;5.43;;;;;;;9.06;51.13;101281.50;5564774;31;33587;-57
2022/01/14 12:54:46;;;;;;;10.32;5.65;;;;;;;9.04;52.31;101265.69;5548854;32;34457;-56
2022/01/14 12:57:55;;;;;;;8.80;5.55;;;;;;;9.16;54.71;101269.03;5559189;32;34276;-56
2022/01/14 13:01:11;;;;;;;10.68;4.95;;;;;;;9.54;56.22;101271.91;5559006;32;34468;-57
2022/01/14 13:04:15;;;;;;;12.37;6.15;;;;;;;9.32;50.26;101262.03;5560963;32;34280;-57
2022/01/14 13:07:24;;;;;;;9.70;5.40;;;;;;;9.40;51.78;101261.59;5581750;31;33855;-56
2022/01/14 13:10:26;;;;;;;9.57;5.53;;;;;;;9.23;51.57;101238.62;5580738;31;33644;-56
2022/01/14 13:13:29;;;;;;;11.82;7.12;;;;;;;9.04;51.10;101241.62;5556387;32;33246;-57
2022/01/14 13:16:49;;;;;;;10.15;5.62;;;;;;;8.93;51.50;101255.91;5550490;32;34315;-57
2022/01/14 13:20:02;;;;;;;11.40;6.18;;;;;;;8.89;51.92;101238.75;5555302;32;34427;-57
2022/01/14 13:23:07;;;;;;;11.57;5.80;;;;;;;8.91;51.82;101247.34;5549403;32;33447;-56
2022/01/14 13:26:10;;;;;;;7.75;5.12;;;;;;;8.98;51.60;101242.63;5552352;32;33572;-56
2022/01/14 13:29:16;;;;;;;9.27;5.80;;;;;;;9.49;60.52;101242.41;5569748;32;33930;-57
2022/01/14 13:32:27;;;;;;;9.05;5.12;;;;;;;9.47;56.32;101242.66;5559147;32;33626;-56
2022/01/14 13:35:38;;;;;;;10.65;6.03;;;;;;;9.58;52.44;101238.22;5567021;32;33653;-56
2022/01/14 13:38:40;;;;;;;11.45;6.05;;;;;;;9.46;52.01;101235.66;5550149;32;33796;-56
2022/01/14 13:41:42;;;;;;;13.27;6.28;;;;;;;9.28;51.91;101236.81;5559565;32;33864;-57
2022/01/14 13:44:45;;;;;;;12.13;6.50;;;;;;;8.98;51.51;101239.94;5550338;32;33769;-56
2022/01/14 13:48:08;;;;;;;11.43;6.07;;;;;;;8.70;53.13;101241.69;5550441;32;33650;-56
2022/01/14 13:51:14;;;;;;;10.27;5.78;;;;;;;8.76;53.06;101237.25;5558055;32;33701;-56
2022/01/14 13:54:16;;;;;;;10.18;5.80;;;;;;;8.84;52.73;101236.00;5569811;32;33649;-56
2022/01/14 13:57:19;;;;;;;10.32;6.00;;;;;;;9.00;53.36;101235.12;5568507;32;33683;-56
2022/01/14 14:00:21;;;;;;;11.05;5.93;;;;;;;8.84;52.55;101234.16;5569596;32;33758;-57
2022/01/14 14:03:51;;;;;;;10.32;5.80;;;;;;;9.03;55.00;101245.34;5569309;32;33745;-56
2022/01/14 14:07:09;;;;;;;10.82;6.55;;;;;;;9.01;52.31;101252.03;5561494;32;33629;-57
2022/01/14 14:10:31;;;;;;;14.27;7.07;;;;;;;8.99;52.68;101248.78;5569431;32;33254;-56
2022/01/14 14:17:09;;;;;;;8.77;5.37;;;;;;;8.74;53.45;101236.69;5549842;32;33798;-55
2022/01/14 14:20:21;;;;;;;;;;;;;;;8.48;53.85;101243.53;5557223;31;33632;-56
2022/01/14 14:23:25;;;;;;;15.77;6.40;;;;;;;8.57;55.89;101230.56;5561251;32;34681;-56
2022/01/14 14:26:30;;;;;;;9.88;6.05;;;;;;;8.60;54.51;101232.75;5558712;32;33756;-57
2022/01/14 14:29:33;;;;;;;12.50;5.60;;;;;;;8.57;55.00;101241.25;5568875;32;34332;-57
2022/01/14 14:32:37;;;;;;;9.52;5.78;;;;;;;8.77;54.15;101240.72;5568847;32;34164;-56
2022/01/14 14:35:41;;;;;;;10.13;5.50;;;;;;;8.82;55.39;101224.75;5567953;32;33810;-57
2022/01/14 14:38:45;;;;;;;10.40;5.20;;;;;;;8.92;53.52;101232.91;5568520;32;33784;-56
2022/01/14 14:42:01;;;;;;;9.70;5.90;;;;;;;8.73;53.67;101224.38;5566108;32;33695;-57
2022/01/14 14:45:04;;;;;;;9.75;4.93;;;;;;;8.79;54.09;101233.28;5559711;32;33431;-57
2022/01/14 14:48:08;;;;;;;8.43;5.25;;;;;;;9.04;53.53;101222.91;5569151;32;33747;-57
2022/01/14 14:51:11;;;;;;;9.30;5.45;;;;;;;9.02;56.31;101217.00;5559901;32;34339;-57
2022/01/14 14:54:14;;;;;;;10.80;5.65;;;;;;;8.80;54.40;101245.56;5549787;32;33719;-56
2022/01/14 14:57:16;;;;;;;15.95;5.55;;;;;;;8.78;55.15;101219.09;5549903;32;34519;-56
2022/01/14 15:00:21;;;;;;;10.52;5.43;;;;;;;8.64;55.92;101215.97;5550299;32;33648;-56
2022/01/14 15:03:24;;;;;;;12.55;5.80;;;;;;;8.72;56.52;101213.94;5557303;32;34285;-57
2022/01/14 15:06:31;;;;;;;11.48;5.28;;;;;;;8.84;55.04;101201.25;5549748;32;34448;-56
2022/01/14 15:09:34;;;;;;;9.27;4.90;;;;;;;8.71;54.98;101207.78;5549572;32;34378;-56
2022/01/14 15:12:40;;;;;;;;;;;;;;;8.90;58.71;101221.66;5563388;32;33935;-56
2022/01/14 15:19:06;;;;;;;9.52;4.75;;;;;;;8.52;55.94;101236.66;5554409;32;34099;-56
2022/01/14 15:22:08;;;;;;;9.40;5.10;;;;;;;8.45;56.53;101220.78;5565948;32;34201;-57
2022/01/14 15:25:12;;;;;;;9.18;5.40;;;;;;;8.35;56.52;101225.94;5568221;32;33982;-56
2022/01/14 15:28:16;;;;;;;11.38;5.10;;;;;;;8.44;57.13;101234.38;5568526;32;35304;-57
2022/01/14 15:31:18;;;;;;;11.05;5.35;;;;;;;8.51;57.53;101227.03;5567396;32;33614;-57
2022/01/14 15:34:20;;;;;;;10.40;5.25;;;;;;;8.39;56.43;101224.44;5568514;32;33742;-56
2022/01/14 15:37:23;;;;;;;9.40;5.50;;;;;;;8.37;57.54;101233.72;5567713;32;33706;-56
2022/01/14 15:40:26;;;;;;;8.98;5.22;;;;;;;8.35;56.87;101228.62;5564813;32;33969;-57
2022/01/14 15:43:33;;;;;;;8.82;5.22;;;;;;;8.41;58.17;101227.69;5561853;32;33821;-56
2022/01/14 15:46:35;;;;;;;10.90;5.80;;;;;;;8.30;57.83;101219.72;5568177;32;33921;-57
2022/01/14 15:49:39;;;;;;;11.30;6.07;;;;;;;8.30;57.18;101211.69;5568647;32;34096;-57
2022/01/14 15:52:42;;;;;;;10.50;5.78;;;;;;;8.38;57.10;101209.47;5569055;32;33669;-56
2022/01/14 15:55:46;;;;;;;8.00;4.85;;;;;;;8.39;56.81;101210.25;5569063;32;33685;-57
2022/01/14 15:58:49;;;;;;;11.12;6.10;;;;;;;8.30;58.41;101206.34;5569001;32;33626;-57
2022/01/14 16:01:51;;;;;;;10.05;5.47;;;;;;;8.34;56.81;101210.94;5568368;32;33900;-56
2022/01/14 16:04:54;;;;;;;11.65;5.72;;;;;;;8.37;57.12;101196.31;5568643;32;34435;-56
2022/01/14 16:07:56;;;;;;;10.80;6.12;;;;;;;8.34;56.96;101192.25;5569009;32;34288;-57
2022/01/14 16:10:58;;;;;;;12.02;5.87;;;;;;;8.23;56.49;101198.50;5568736;32;33986;-56
2022/01/14 16:14:15;;;;;;;10.02;5.55;;;;;;;8.23;57.71;101207.31;5568824;32;33689;-57
2022/01/14 16:17:17;;;;;;;9.45;5.20;;;;;;;8.42;56.69;101191.88;5568895;32;33291;-57
2022/01/14 16:20:20;;;;;;;8.88;4.25;;;;;;;8.41;61.09;101192.94;5568733;32;33830;-57
2022/01/14 16:23:24;;;;;;;9.15;5.25;;;;;;;8.40;55.80;101171.78;5568590;32;33738;-56
2022/01/14 16:26:31;;;;;;;11.45;5.60;;;;;;;8.34;56.18;101178.91;5568826;32;34379;-56
2022/01/14 16:29:42;;;;;;;9.52;5.03;;;;;;;8.36;55.70;101168.78;5568795;32;33696;-57
2022/01/14 16:32:46;;;;;;;9.43;4.87;;;;;;;8.45;55.40;101163.88;5568614;32;34271;-57
2022/01/14 16:35:48;;;;;;;36.80;6.50;;;;;;;8.46;54.53;101166.28;5568620;32;34491;-56
2022/01/14 16:38:51;;;;;;;10.50;4.78;;;;;;;8.49;54.03;101162.31;5568648;32;33926;-56
2022/01/14 16:41:54;;;;;;;10.65;4.75;;;;;;;8.43;53.75;101145.41;5568376;32;34079;-57
2022/01/14 16:45:00;;;;;;;10.45;5.20;;;;;;;8.46;53.87;101157.47;5567985;32;33768;-56
